createdAt,value
2022-08-26T00:01:17.456Z,8.98
2022-08-26T00:03:54.783Z,9.10
2022-08-26T00:08:57.709Z,10.70
2022-08-26T00:11:28.838Z,9.90
2022-08-26T00:14:00.701Z,9.80
2022-08-26T00:16:32.256Z,9.70
2022-08-26T00:19:02.759Z,9.45
2022-08-26T00:24:07.416Z,8.55
2022-08-26T00:26:37.773Z,9.10
2022-08-26T00:29:08.005Z,10.23
2022-08-26T00:31:39.899Z,10.23
2022-08-26T00:36:42.624Z,9.77
2022-08-26T00:39:15.964Z,10.82
2022-08-26T00:41:46.913Z,9.88
2022-08-26T00:44:17.132Z,9.98
2022-08-26T00:46:53.939Z,9.75
2022-08-26T00:49:34.196Z,9.50
2022-08-26T00:52:09.685Z,9.32
2022-08-26T00:54:47.365Z,10.20
2022-08-26T00:57:21.031Z,9.68
2022-08-26T00:59:58.298Z,10.05
2022-08-26T01:02:28.897Z,10.48
2022-08-26T01:05:04.281Z,10.40
2022-08-26T01:07:39.244Z,10.75
2022-08-26T01:10:17.229Z,10.55
2022-08-26T01:12:52.813Z,10.52
2022-08-26T01:15:29.176Z,9.60
2022-08-26T01:18:04.136Z,11.18
2022-08-26T01:20:43.254Z,10.02
2022-08-26T01:23:16.425Z,10.77
2022-08-26T01:25:51.903Z,10.63
2022-08-26T01:28:26.762Z,9.65
2022-08-26T01:30:59.785Z,10.07
2022-08-26T01:33:47.856Z,10.38
2022-08-26T01:36:20.778Z,10.70
2022-08-26T01:38:53.608Z,10.13
2022-08-26T01:41:27.443Z,10.43
2022-08-26T01:44:00.394Z,10.32
2022-08-26T01:46:33.545Z,10.85
2022-08-26T01:49:07.983Z,10.57
2022-08-26T01:51:39.691Z,11.30
2022-08-26T01:54:14.268Z,10.35
2022-08-26T01:56:44.627Z,10.65
2022-08-26T01:59:18.128Z,11.57
2022-08-26T02:01:50.342Z,11.13
2022-08-26T02:04:29.126Z,11.73
2022-08-26T02:07:00.340Z,11.20
2022-08-26T02:09:33.464Z,10.10
2022-08-26T02:12:14.882Z,10.93
2022-08-26T02:14:52.029Z,11.85
2022-08-26T02:17:27.689Z,11.80
2022-08-26T02:19:59.463Z,11.88
2022-08-26T02:22:29.768Z,11.60
2022-08-26T02:25:12.007Z,11.90
2022-08-26T02:27:43.564Z,11.70
2022-08-26T02:30:18.617Z,11.35
2022-08-26T02:32:49.779Z,12.35
2022-08-26T02:35:23.417Z,11.95
2022-08-26T02:37:56.018Z,12.85
2022-08-26T02:40:34.978Z,12.55
2022-08-26T02:43:08.606Z,12.02
2022-08-26T02:45:40.322Z,12.20
2022-08-26T02:48:16.894Z,11.25
2022-08-26T02:50:50.050Z,11.45
2022-08-26T02:53:25.004Z,11.63
2022-08-26T02:55:58.524Z,12.27
2022-08-26T02:58:30.072Z,11.75
2022-08-26T03:01:00.374Z,11.85
2022-08-26T03:03:32.076Z,12.68
2022-08-26T03:06:02.961Z,11.20
2022-08-26T03:08:33.488Z,11.98
2022-08-26T03:13:36.698Z,11.90
2022-08-26T03:16:08.650Z,11.90
2022-08-26T03:18:39.922Z,12.55
2022-08-26T03:21:11.661Z,12.52
2022-08-26T03:23:43.656Z,12.70
2022-08-26T03:26:18.862Z,12.27
2022-08-26T03:29:01.216Z,12.88
2022-08-26T03:31:33.069Z,12.07
2022-08-26T03:34:03.649Z,11.90
2022-08-26T03:36:35.029Z,12.20
2022-08-26T03:39:05.718Z,12.57
2022-08-26T03:41:39.956Z,11.80
2022-08-26T03:44:11.726Z,14.00
2022-08-26T03:49:14.421Z,13.32
2022-08-26T03:51:45.400Z,14.48
2022-08-26T03:54:15.889Z,14.88
2022-08-26T03:56:48.689Z,14.02
2022-08-26T03:59:18.907Z,13.90
2022-08-26T04:01:49.100Z,15.45
2022-08-26T04:04:22.570Z,15.45
2022-08-26T04:06:53.208Z,15.63
2022-08-26T04:09:24.284Z,14.27
2022-08-26T04:11:59.642Z,15.73
2022-08-26T04:14:31.947Z,15.43
2022-08-26T04:17:04.566Z,15.95
2022-08-26T04:19:36.594Z,15.70
2022-08-26T04:24:39.584Z,15.30
2022-08-26T04:27:12.581Z,16.00
2022-08-26T04:29:43.812Z,16.58
2022-08-26T04:32:14.016Z,17.30
2022-08-26T04:34:44.976Z,16.90
2022-08-26T04:37:16.599Z,17.70
2022-08-26T04:39:47.919Z,16.42
2022-08-26T04:42:26.258Z,17.60
2022-08-26T04:44:56.707Z,17.50
2022-08-26T04:47:31.720Z,16.70
2022-08-26T04:50:02.521Z,17.00
2022-08-26T04:52:32.755Z,17.65
2022-08-26T04:55:02.960Z,17.80
2022-08-26T04:57:39.005Z,17.98
2022-08-26T05:00:13.463Z,17.67
2022-08-26T05:02:43.879Z,16.92
2022-08-26T05:05:14.229Z,16.02
2022-08-26T05:07:44.762Z,16.17
2022-08-26T05:12:47.654Z,16.13
2022-08-26T05:15:18.003Z,16.52
2022-08-26T05:17:50.507Z,15.48
2022-08-26T05:20:25.622Z,15.95
2022-08-26T05:22:56.502Z,17.20
2022-08-26T05:25:27.437Z,17.20
2022-08-26T05:30:32.945Z,16.25
2022-08-26T05:33:05.112Z,16.23
2022-08-26T05:35:36.294Z,15.57
2022-08-26T05:38:12.652Z,18.25
2022-08-26T05:40:47.319Z,17.38
2022-08-26T05:43:20.647Z,17.58
2022-08-26T05:45:53.222Z,18.58
2022-08-26T05:48:24.524Z,18.27
2022-08-26T05:50:56.338Z,18.20
2022-08-26T05:53:26.484Z,18.23
2022-08-26T05:55:58.526Z,17.60
2022-08-26T05:58:32.663Z,17.92
2022-08-26T06:01:05.642Z,17.30
2022-08-26T06:03:38.768Z,17.42
2022-08-26T06:06:12.293Z,17.77
2022-08-26T06:08:44.141Z,16.65
2022-08-26T06:11:19.323Z,16.85
2022-08-26T06:13:53.461Z,15.75
2022-08-26T06:16:26.404Z,16.40
2022-08-26T06:18:57.768Z,15.80
2022-08-26T06:21:31.114Z,16.90
2022-08-26T06:24:16.808Z,15.30
2022-08-26T06:26:53.108Z,16.65
2022-08-26T06:29:28.581Z,15.25
2022-08-26T06:32:00.351Z,15.15
2022-08-26T06:34:31.792Z,16.48
2022-08-26T06:37:06.326Z,15.35
2022-08-26T06:39:40.123Z,13.35
2022-08-26T06:42:11.934Z,15.52
2022-08-26T06:44:45.540Z,15.25
2022-08-26T06:47:15.926Z,15.07
2022-08-26T06:49:46.098Z,15.07
2022-08-26T06:52:21.193Z,13.73
2022-08-26T06:54:54.540Z,14.23
2022-08-26T06:59:57.221Z,13.10
2022-08-26T07:02:28.504Z,13.02
2022-08-26T07:04:59.118Z,14.13
2022-08-26T07:07:29.658Z,13.02
2022-08-26T07:09:59.882Z,13.05
2022-08-26T07:15:02.862Z,12.75
2022-08-26T07:17:33.020Z,13.02
2022-08-26T07:20:07.031Z,11.93
2022-08-26T07:22:38.454Z,11.68
2022-08-26T07:25:11.770Z,11.32
2022-08-26T07:27:42.450Z,12.23
2022-08-26T07:32:46.365Z,11.30
2022-08-26T07:40:16.800Z,12.10
2022-08-26T07:42:47.397Z,11.00
2022-08-26T07:45:21.599Z,10.43
2022-08-26T07:47:52.502Z,10.70
2022-08-26T07:50:49.223Z,10.65
2022-08-26T07:53:13.270Z,11.32
2022-08-26T07:55:45.320Z,11.00
2022-08-26T07:58:15.603Z,11.40
2022-08-26T08:00:49.024Z,10.65
2022-08-26T08:03:20.682Z,9.73
2022-08-26T08:05:51.086Z,10.20
2022-08-26T08:08:27.941Z,9.65
2022-08-26T08:10:59.939Z,9.65
2022-08-26T08:13:30.600Z,10.13
2022-08-26T08:16:05.107Z,9.50
2022-08-26T08:18:35.457Z,8.45
2022-08-26T08:21:21.426Z,7.93
2022-08-26T08:23:52.736Z,8.30
2022-08-26T08:26:23.648Z,8.05
2022-08-26T08:28:57.174Z,8.10
2022-08-26T08:34:23.267Z,8.05
2022-08-26T08:36:54.278Z,7.28
2022-08-26T08:39:25.086Z,6.93
2022-08-26T08:42:30.626Z,9.80
2022-08-26T08:45:07.949Z,6.95
2022-08-26T08:47:45.271Z,7.43
2022-08-26T08:50:26.290Z,6.32
2022-08-26T08:53:12.772Z,6.55
2022-08-26T08:56:09.741Z,6.50
2022-08-26T08:58:56.865Z,6.30
2022-08-26T09:01:53.909Z,7.70
2022-08-26T09:05:05.070Z,6.60
2022-08-26T09:07:41.221Z,6.03
2022-08-26T09:10:32.309Z,5.82
2022-08-26T09:13:04.690Z,5.00
2022-08-26T09:15:52.860Z,6.75
2022-08-26T09:18:42.767Z,5.40
2022-08-26T09:21:23.561Z,6.07
2022-08-26T09:23:57.192Z,5.57
2022-08-26T09:26:31.747Z,5.97
2022-08-26T09:29:04.923Z,5.70
2022-08-26T09:31:37.850Z,6.22
2022-08-26T09:34:17.861Z,5.75
2022-08-26T09:36:53.706Z,7.18
2022-08-26T09:39:37.839Z,6.32
2022-08-26T09:42:14.329Z,6.50
2022-08-26T09:44:59.565Z,7.85
2022-08-26T09:47:34.036Z,7.45
2022-08-26T09:50:12.426Z,7.13
2022-08-26T09:52:45.494Z,7.88
2022-08-26T09:55:23.157Z,7.18
2022-08-26T09:57:55.697Z,6.82
2022-08-26T10:00:34.017Z,6.47
2022-08-26T10:03:08.971Z,5.15
2022-08-26T10:05:44.944Z,4.90
2022-08-26T10:08:30.898Z,5.90
2022-08-26T10:11:04.638Z,5.40
2022-08-26T10:13:39.799Z,5.30
2022-08-26T10:16:20.834Z,6.47
2022-08-26T10:19:02.292Z,7.22
2022-08-26T10:21:41.895Z,7.53
2022-08-26T10:24:22.787Z,8.30
2022-08-26T10:27:04.323Z,8.48
2022-08-26T10:29:42.630Z,7.35
2022-08-26T10:32:20.902Z,6.97
2022-08-26T10:34:51.095Z,6.85
2022-08-26T10:37:26.855Z,8.02
2022-08-26T10:40:05.860Z,7.90
2022-08-26T10:42:40.825Z,8.00
2022-08-26T10:45:15.641Z,7.25
2022-08-26T10:47:53.378Z,7.65
2022-08-26T10:50:34.972Z,7.20
2022-08-26T10:53:17.435Z,8.80
2022-08-26T10:58:53.858Z,7.88
2022-08-26T11:01:51.066Z,6.13
2022-08-26T11:04:48.094Z,5.72
2022-08-26T11:07:43.202Z,5.57
2022-08-26T11:10:45.248Z,5.80
2022-08-26T11:13:17.935Z,5.65
2022-08-26T11:16:12.419Z,6.18
2022-08-26T11:18:51.339Z,5.95
2022-08-26T11:22:06.262Z,5.65
2022-08-26T11:25:13.627Z,6.20
2022-08-26T11:28:06.061Z,5.55
2022-08-26T11:30:58.344Z,6.07
2022-08-26T11:33:52.896Z,6.47
2022-08-26T11:36:59.830Z,6.28
2022-08-26T11:39:38.396Z,5.93
2022-08-26T11:42:24.447Z,5.60
2022-08-26T11:44:59.362Z,5.65
2022-08-26T11:47:35.730Z,5.70
2022-08-26T11:50:16.506Z,5.57
2022-08-26T11:55:25.387Z,5.20
2022-08-26T11:58:00.921Z,6.03
2022-08-26T12:00:36.175Z,6.35
2022-08-26T12:03:11.934Z,6.10
2022-08-26T12:05:50.130Z,6.30
2022-08-26T12:08:24.766Z,5.90
2022-08-26T12:11:07.097Z,6.18
2022-08-26T12:13:39.306Z,7.30
2022-08-26T12:16:10.269Z,6.22
2022-08-26T12:18:44.787Z,6.75
2022-08-26T12:21:18.846Z,6.78
2022-08-26T12:23:51.164Z,6.45
2022-08-26T12:26:29.513Z,6.13
2022-08-26T12:29:12.930Z,6.20
2022-08-26T12:31:54.747Z,6.80
2022-08-26T12:34:28.215Z,5.65
2022-08-26T12:37:00.882Z,5.75
2022-08-26T12:39:34.175Z,6.13
2022-08-26T12:42:08.554Z,6.57
2022-08-26T12:44:54.185Z,5.68
2022-08-26T12:47:43.030Z,6.00
2022-08-26T12:50:23.673Z,6.40
2022-08-26T12:53:02.814Z,7.15
2022-08-26T12:55:44.909Z,6.57
2022-08-26T12:58:25.635Z,7.07
2022-08-26T13:00:57.567Z,7.53
2022-08-26T13:03:45.641Z,6.88
2022-08-26T13:06:31.274Z,7.15
2022-08-26T13:09:06.081Z,6.82
2022-08-26T13:11:58.871Z,6.18
2022-08-26T13:14:29.217Z,8.45
2022-08-26T13:16:59.667Z,12.35
2022-08-26T13:19:29.859Z,13.23
2022-08-26T13:24:38.181Z,5.43
2022-08-26T13:27:15.512Z,5.82
2022-08-26T13:29:45.919Z,4.93
2022-08-26T13:32:18.097Z,5.00
2022-08-26T13:34:52.946Z,5.40
2022-08-26T13:37:35.285Z,6.82
2022-08-26T13:40:08.604Z,5.57
2022-08-26T13:42:43.007Z,13.35
2022-08-26T13:45:20.847Z,6.45
2022-08-26T13:47:51.133Z,9.30
2022-08-26T13:50:21.319Z,14.68
2022-08-26T13:55:24.133Z,6.50
2022-08-26T14:00:24.694Z,6.50
2022-08-26T14:02:54.962Z,5.97
2022-08-26T14:05:25.179Z,5.65
2022-08-26T14:07:58.426Z,5.95
2022-08-26T14:10:30.340Z,6.32
2022-08-26T14:13:00.559Z,6.28
2022-08-26T14:18:01.104Z,6.30
2022-08-26T14:23:14.579Z,7.50
2022-08-26T14:25:44.999Z,6.43
2022-08-26T14:30:47.382Z,6.18
2022-08-26T14:33:18.298Z,6.32
2022-08-26T14:35:49.006Z,6.55
2022-08-26T14:38:22.792Z,6.22
2022-08-26T14:40:56.087Z,6.90
2022-08-26T14:45:56.632Z,6.05
2022-08-26T14:48:26.808Z,6.35
2022-08-26T14:50:57.035Z,5.50
2022-08-26T14:53:42.257Z,6.03
2022-08-26T14:56:16.524Z,6.47
2022-08-26T14:58:47.106Z,6.40
2022-08-26T15:03:47.393Z,6.40
2022-08-26T15:06:19.669Z,10.18
2022-08-26T15:08:52.648Z,13.35
2022-08-26T15:11:22.949Z,23.35
2022-08-26T15:16:23.489Z,8.63
2022-08-26T15:18:54.304Z,7.50
2022-08-26T15:21:24.962Z,7.05
2022-08-26T15:23:58.175Z,7.00
2022-08-26T15:26:28.698Z,7.53
2022-08-26T15:29:04.713Z,6.45
2022-08-26T15:31:36.725Z,6.20
2022-08-26T15:34:14.617Z,6.80
2022-08-26T15:36:47.510Z,6.38
2022-08-26T15:39:21.082Z,6.72
2022-08-26T15:41:51.767Z,6.57
2022-08-26T15:44:22.048Z,6.45
2022-08-26T15:49:30.326Z,6.25
2022-08-26T15:52:04.217Z,6.00
2022-08-26T15:54:39.686Z,6.15
2022-08-26T15:57:13.621Z,5.57
2022-08-26T15:59:45.420Z,5.72
2022-08-26T16:02:15.736Z,6.50
2022-08-26T16:04:46.091Z,5.93
2022-08-26T16:09:52.097Z,7.53
2022-08-26T16:12:24.689Z,7.30
2022-08-26T16:14:54.919Z,6.65
2022-08-26T16:17:25.307Z,6.47
2022-08-26T16:19:56.384Z,6.32
2022-08-26T16:22:27.930Z,6.20
2022-08-26T16:25:02.348Z,6.28
2022-08-26T16:27:32.612Z,5.93
2022-08-26T16:32:32.835Z,6.25
2022-08-26T16:35:02.999Z,6.53
2022-08-26T16:37:35.467Z,5.93
2022-08-26T16:40:13.337Z,6.85
2022-08-26T16:42:43.616Z,5.85
2022-08-26T16:47:44.545Z,5.93
2022-08-26T16:50:15.133Z,6.13
2022-08-26T16:52:45.402Z,7.32
2022-08-26T16:55:19.460Z,7.53
2022-08-26T16:57:49.958Z,8.48
2022-08-26T17:00:24.642Z,8.15
2022-08-26T17:02:55.153Z,6.78
2022-08-26T17:05:26.625Z,6.22
2022-08-26T17:07:57.713Z,6.55
2022-08-26T17:10:32.430Z,6.63
2022-08-26T17:13:03.292Z,6.85
2022-08-26T17:15:33.592Z,6.20
2022-08-26T17:23:04.998Z,7.85
2022-08-26T17:25:37.896Z,6.90
2022-08-26T17:28:13.187Z,6.57
2022-08-26T17:30:44.491Z,7.15
2022-08-26T17:33:14.969Z,7.00
2022-08-26T17:35:49.228Z,7.25
2022-08-26T17:38:19.868Z,7.18
2022-08-26T17:40:53.655Z,7.07
2022-08-26T17:43:24.113Z,7.90
2022-08-26T17:48:25.092Z,6.95
2022-08-26T17:50:56.608Z,7.00
2022-08-26T17:53:29.240Z,7.25
2022-08-26T17:56:02.429Z,7.75
2022-08-26T17:58:32.812Z,8.18
2022-08-26T18:01:06.211Z,8.00
2022-08-26T18:03:37.286Z,7.80
2022-08-26T18:06:13.108Z,7.57
2022-08-26T18:08:45.125Z,7.60
2022-08-26T18:11:21.005Z,8.32
2022-08-26T18:13:51.604Z,7.50
2022-08-26T18:16:23.495Z,7.65
2022-08-26T18:18:54.492Z,7.47
2022-08-26T18:21:29.956Z,7.70
2022-08-26T18:24:00.391Z,7.53
2022-08-26T18:29:08.899Z,7.80
2022-08-26T18:31:39.311Z,7.25
2022-08-26T18:34:12.915Z,7.85
2022-08-26T18:36:43.894Z,8.00
2022-08-26T18:39:18.379Z,7.55
2022-08-26T18:41:55.314Z,7.55
2022-08-26T18:44:26.433Z,7.30
2022-08-26T18:46:56.929Z,7.32
2022-08-26T18:51:57.463Z,7.10
2022-08-26T18:54:27.956Z,7.72
2022-08-26T18:57:02.979Z,8.20
2022-08-26T18:59:33.337Z,7.65
2022-08-26T19:02:03.823Z,9.07
2022-08-26T19:04:34.596Z,7.07
2022-08-26T19:07:05.225Z,8.50
2022-08-26T19:09:36.076Z,7.57
2022-08-26T19:12:10.117Z,7.80
2022-08-26T19:14:40.544Z,8.23
2022-08-26T19:19:41.465Z,7.60
2022-08-26T19:22:12.067Z,8.25
2022-08-26T19:27:15.238Z,8.40
2022-08-26T19:29:45.601Z,7.95
2022-08-26T19:32:17.163Z,7.93
2022-08-26T19:34:47.600Z,8.90
2022-08-26T19:37:17.982Z,7.20
2022-08-26T19:39:49.019Z,7.68
2022-08-26T19:42:22.256Z,8.07
2022-08-26T19:45:04.973Z,7.55
2022-08-26T19:47:36.603Z,7.85
2022-08-26T19:50:11.644Z,8.98
2022-08-26T19:52:45.710Z,8.90
2022-08-26T19:55:18.698Z,8.82
2022-08-26T19:57:53.099Z,8.85
2022-08-26T20:00:27.428Z,9.00
2022-08-26T20:02:58.556Z,9.60
2022-08-26T20:05:30.162Z,11.43
2022-08-26T20:08:00.844Z,11.18
2022-08-26T20:10:31.835Z,12.25
2022-08-26T20:13:04.823Z,12.15
2022-08-26T20:15:39.116Z,11.15
2022-08-26T20:23:43.922Z,11.57
2022-08-26T20:26:14.958Z,11.68
2022-08-26T20:28:51.473Z,12.10
2022-08-26T20:31:22.223Z,11.85
2022-08-26T20:33:53.317Z,12.77
2022-08-26T20:36:27.079Z,13.20
2022-08-26T20:38:58.945Z,13.32
2022-08-26T20:41:30.995Z,38.30
2022-08-26T20:44:04.886Z,25.52
2022-08-26T20:46:36.528Z,13.18
2022-08-26T20:49:08.441Z,13.70
2022-08-26T20:51:40.186Z,13.98
2022-08-26T20:54:11.806Z,14.52
2022-08-26T20:56:42.327Z,13.90
2022-08-26T21:01:46.570Z,12.80
2022-08-26T21:04:21.996Z,13.35
2022-08-26T21:06:54.610Z,12.57
2022-08-26T21:09:27.451Z,13.70
2022-08-26T21:11:59.452Z,13.45
2022-08-26T21:17:04.130Z,12.82
2022-08-26T21:19:34.656Z,11.70
2022-08-26T21:24:36.155Z,12.05
2022-08-26T21:27:08.013Z,12.32
2022-08-26T21:29:42.075Z,12.30
2022-08-26T21:32:12.734Z,12.57
2022-08-26T21:34:46.161Z,11.68
2022-08-26T21:37:17.126Z,11.45
2022-08-26T21:39:47.771Z,11.48
2022-08-26T21:42:18.463Z,11.48
2022-08-26T21:44:53.523Z,11.38
2022-08-26T21:47:24.691Z,11.60
2022-08-26T21:49:55.935Z,11.13
2022-08-26T21:52:26.651Z,11.88
2022-08-26T21:55:01.336Z,11.40
2022-08-26T21:57:32.653Z,11.43
2022-08-26T22:00:08.380Z,10.25
2022-08-26T22:02:39.253Z,11.23
2022-08-26T22:05:10.778Z,11.10
2022-08-26T22:07:41.249Z,11.15
2022-08-26T22:12:42.140Z,12.05
2022-08-26T22:15:16.021Z,12.18
2022-08-26T22:17:46.280Z,11.98
2022-08-26T22:20:16.894Z,12.32
2022-08-26T22:22:47.159Z,12.40
2022-08-26T22:25:17.391Z,12.30
2022-08-26T22:27:47.698Z,13.13
2022-08-26T22:30:21.207Z,12.38
2022-08-26T22:32:51.512Z,9.57
2022-08-26T22:35:28.948Z,5.47
2022-08-26T22:38:01.013Z,3.97
2022-08-26T22:40:31.376Z,3.20
2022-08-26T22:43:02.329Z,2.40
2022-08-26T22:45:35.677Z,2.40
2022-08-26T22:48:07.208Z,2.58
2022-08-26T22:50:37.482Z,2.78
2022-08-26T22:53:07.770Z,2.58
2022-08-26T22:55:39.189Z,2.00
2022-08-26T22:58:09.718Z,2.22
2022-08-26T23:03:14.505Z,1.90
2022-08-26T23:08:17.543Z,1.98
2022-08-26T23:10:50.118Z,3.10
2022-08-26T23:13:21.267Z,3.10
2022-08-26T23:16:03.747Z,2.65
2022-08-26T23:18:34.211Z,3.00
2022-08-26T23:21:04.784Z,2.80
2022-08-26T23:26:06.503Z,2.70
2022-08-26T23:28:37.272Z,2.70
2022-08-26T23:33:52.872Z,3.00
2022-08-26T23:36:23.781Z,2.97
2022-08-26T23:38:54.444Z,2.95
2022-08-26T23:43:55.340Z,3.17
2022-08-26T23:46:28.131Z,2.97
2022-08-26T23:48:58.352Z,3.20
2022-08-26T23:51:41.080Z,3.33
2022-08-26T23:54:11.313Z,4.72
2022-08-26T23:56:42.206Z,4.65
2022-08-26T23:59:12.418Z,3.63
